sensor_id;sensor_type;location;lat;lon;timestamp;P1;durP1;ratioP1;P2;durP2;ratioP2
43676;SDS011;29275;48.800;18.102;2024-01-15T00:02:57;28.95;;;15.38;;
43676;SDS011;29275;48.800;18.102;2024-01-15T00:05:59;28.33;;;14.40;;
43676;SDS011;29275;48.800;18.102;2024-01-15T00:09:06;29.52;;;15.02;;
43676;SDS011;29275;48.800;18.102;2024-01-15T00:12:11;29.70;;;15.30;;
43676;SDS011;29275;48.800;18.102;2024-01-15T00:15:16;31.70;;;16.73;;
43676;SDS011;29275;48.800;18.102;2024-01-15T00:18:19;30.27;;;14.70;;
43676;SDS011;29275;48.800;18.102;2024-01-15T00:21:22;34.28;;;17.27;;
43676;SDS011;29275;48.800;18.102;2024-01-15T00:24:25;31.30;;;15.57;;
43676;SDS011;29275;48.800;18.102;2024-01-15T00:27:28;23.52;;;13.63;;
43676;SDS011;29275;48.800;18.102;2024-01-15T00:30:31;25.90;;;12.93;;
43676;SDS011;29275;48.800;18.102;2024-01-15T00:33:34;26.52;;;13.02;;
43676;SDS011;29275;48.800;18.102;2024-01-15T00:36:38;22.88;;;12.45;;
43676;SDS011;29275;48.800;18.102;2024-01-15T00:39:41;30.55;;;14.27;;
43676;SDS011;29275;48.800;18.102;2024-01-15T00:42:44;22.38;;;11.00;;
43676;SDS011;29275;48.800;18.102;2024-01-15T00:45:47;24.13;;;12.55;;
43676;SDS011;29275;48.800;18.102;2024-01-15T00:48:50;23.25;;;12.27;;
43676;SDS011;29275;48.800;18.102;2024-01-15T00:51:53;22.08;;;12.23;;
43676;SDS011;29275;48.800;18.102;2024-01-15T00:54:58;25.42;;;12.35;;
43676;SDS011;29275;48.800;18.102;2024-01-15T00:58:01;29.33;;;13.60;;
43676;SDS011;29275;48.800;18.102;2024-01-15T01:01:04;24.10;;;12.07;;
43676;SDS011;29275;48.800;18.102;2024-01-15T01:04:07;21.30;;;11.63;;
43676;SDS011;29275;48.800;18.102;2024-01-15T01:07:10;19.00;;;11.23;;
43676;SDS011;29275;48.800;18.102;2024-01-15T01:10:13;18.52;;;9.73;;
43676;SDS011;29275;48.800;18.102;2024-01-15T01:13:16;21.60;;;10.23;;
43676;SDS011;29275;48.800;18.102;2024-01-15T01:16:22;27.92;;;12.73;;
43676;SDS011;29275;48.800;18.102;2024-01-15T01:19:25;23.27;;;12.07;;
43676;SDS011;29275;48.800;18.102;2024-01-15T01:22:28;21.02;;;10.50;;
43676;SDS011;29275;48.800;18.102;2024-01-15T01:25:33;27.25;;;13.52;;
43676;SDS011;29275;48.800;18.102;2024-01-15T01:28:36;25.77;;;12.57;;
43676;SDS011;29275;48.800;18.102;2024-01-15T01:31:45;25.25;;;12.95;;
43676;SDS011;29275;48.800;18.102;2024-01-15T01:34:51;22.98;;;11.73;;
43676;SDS011;29275;48.800;18.102;2024-01-15T01:37:57;20.13;;;9.85;;
43676;SDS011;29275;48.800;18.102;2024-01-15T01:41:00;18.65;;;10.48;;
43676;SDS011;29275;48.800;18.102;2024-01-15T01:44:03;21.10;;;11.02;;
43676;SDS011;29275;48.800;18.102;2024-01-15T01:47:09;29.75;;;14.07;;
43676;SDS011;29275;48.800;18.102;2024-01-15T01:50:13;23.85;;;12.32;;
43676;SDS011;29275;48.800;18.102;2024-01-15T01:53:16;22.38;;;11.68;;
43676;SDS011;29275;48.800;18.102;2024-01-15T01:56:19;22.75;;;10.45;;
43676;SDS011;29275;48.800;18.102;2024-01-15T01:59:22;23.60;;;11.95;;
43676;SDS011;29275;48.800;18.102;2024-01-15T02:02:26;23.40;;;11.75;;
43676;SDS011;29275;48.800;18.102;2024-01-15T02:05:29;22.40;;;12.38;;
43676;SDS011;29275;48.800;18.102;2024-01-15T02:08:32;25.60;;;13.05;;
43676;SDS011;29275;48.800;18.102;2024-01-15T02:11:36;25.98;;;12.20;;
43676;SDS011;29275;48.800;18.102;2024-01-15T02:14:39;23.38;;;11.88;;
43676;SDS011;29275;48.800;18.102;2024-01-15T02:17:58;18.63;;;10.23;;
43676;SDS011;29275;48.800;18.102;2024-01-15T02:21:05;21.88;;;10.85;;
43676;SDS011;29275;48.800;18.102;2024-01-15T02:24:08;21.23;;;10.95;;
43676;SDS011;29275;48.800;18.102;2024-01-15T02:27:14;23.85;;;11.15;;
43676;SDS011;29275;48.800;18.102;2024-01-15T02:30:17;23.35;;;11.30;;
43676;SDS011;29275;48.800;18.102;2024-01-15T02:33:20;24.38;;;11.57;;
43676;SDS011;29275;48.800;18.102;2024-01-15T02:36:23;23.98;;;11.82;;
43676;SDS011;29275;48.800;18.102;2024-01-15T02:39:26;18.63;;;11.35;;
43676;SDS011;29275;48.800;18.102;2024-01-15T02:42:30;21.77;;;10.88;;
43676;SDS011;29275;48.800;18.102;2024-01-15T02:45:36;22.30;;;11.18;;
43676;SDS011;29275;48.800;18.102;2024-01-15T02:48:41;25.33;;;12.35;;
43676;SDS011;29275;48.800;18.102;2024-01-15T02:51:44;19.05;;;10.95;;
43676;SDS011;29275;48.800;18.102;2024-01-15T02:54:48;23.17;;;11.57;;
43676;SDS011;29275;48.800;18.102;2024-01-15T02:57:50;21.70;;;12.35;;
43676;SDS011;29275;48.800;18.102;2024-01-15T03:00:53;26.20;;;12.98;;
43676;SDS011;29275;48.800;18.102;2024-01-15T03:03:59;22.20;;;11.50;;
43676;SDS011;29275;48.800;18.102;2024-01-15T03:07:02;23.77;;;12.70;;
43676;SDS011;29275;48.800;18.102;2024-01-15T03:10:05;18.60;;;10.88;;
43676;SDS011;29275;48.800;18.102;2024-01-15T03:13:08;20.00;;;10.88;;
43676;SDS011;29275;48.800;18.102;2024-01-15T03:16:11;22.13;;;10.30;;
43676;SDS011;29275;48.800;18.102;2024-01-15T03:19:14;20.70;;;10.80;;
43676;SDS011;29275;48.800;18.102;2024-01-15T03:22:17;25.63;;;11.77;;
43676;SDS011;29275;48.800;18.102;2024-01-15T03:25:20;22.75;;;11.13;;
43676;SDS011;29275;48.800;18.102;2024-01-15T03:28:23;20.52;;;11.43;;
43676;SDS011;29275;48.800;18.102;2024-01-15T03:31:26;23.50;;;12.77;;
43676;SDS011;29275;48.800;18.102;2024-01-15T03:34:29;21.45;;;11.50;;
43676;SDS011;29275;48.800;18.102;2024-01-15T03:37:32;23.90;;;12.15;;
43676;SDS011;29275;48.800;18.102;2024-01-15T03:40:38;28.25;;;14.75;;
43676;SDS011;29275;48.800;18.102;2024-01-15T03:43:41;29.98;;;14.60;;
43676;SDS011;29275;48.800;18.102;2024-01-15T03:46:44;25.55;;;14.40;;
43676;SDS011;29275;48.800;18.102;2024-01-15T03:49:49;35.08;;;17.55;;
43676;SDS011;29275;48.800;18.102;2024-01-15T03:52:52;30.35;;;14.80;;
43676;SDS011;29275;48.800;18.102;2024-01-15T03:55:58;31.23;;;15.57;;
43676;SDS011;29275;48.800;18.102;2024-01-15T03:59:00;28.08;;;14.48;;
43676;SDS011;29275;48.800;18.102;2024-01-15T04:02:04;28.25;;;14.90;;
43676;SDS011;29275;48.800;18.102;2024-01-15T04:05:07;40.17;;;18.92;;
43676;SDS011;29275;48.800;18.102;2024-01-15T04:08:12;39.75;;;18.73;;
43676;SDS011;29275;48.800;18.102;2024-01-15T04:11:15;42.90;;;20.65;;
43676;SDS011;29275;48.800;18.102;2024-01-15T04:14:18;40.95;;;20.33;;
43676;SDS011;29275;48.800;18.102;2024-01-15T04:17:20;41.60;;;21.00;;
43676;SDS011;29275;48.800;18.102;2024-01-15T04:20:24;34.97;;;17.98;;
43676;SDS011;29275;48.800;18.102;2024-01-15T04:23:27;30.13;;;16.38;;
43676;SDS011;29275;48.800;18.102;2024-01-15T04:26:33;35.45;;;18.23;;
43676;SDS011;29275;48.800;18.102;2024-01-15T04:29:38;37.38;;;20.50;;
43676;SDS011;29275;48.800;18.102;2024-01-15T04:32:43;37.05;;;19.48;;
43676;SDS011;29275;48.800;18.102;2024-01-15T04:35:45;45.83;;;21.58;;
43676;SDS011;29275;48.800;18.102;2024-01-15T04:38:48;40.92;;;19.85;;
43676;SDS011;29275;48.800;18.102;2024-01-15T04:41:54;40.35;;;20.13;;
43676;SDS011;29275;48.800;18.102;2024-01-15T04:44:56;37.42;;;19.02;;
43676;SDS011;29275;48.800;18.102;2024-01-15T04:47:59;43.05;;;21.20;;
43676;SDS011;29275;48.800;18.102;2024-01-15T04:51:05;40.17;;;21.77;;
43676;SDS011;29275;48.800;18.102;2024-01-15T04:54:09;39.47;;;18.87;;
43676;SDS011;29275;48.800;18.102;2024-01-15T04:57:13;38.30;;;19.23;;
43676;SDS011;29275;48.800;18.102;2024-01-15T05:00:24;37.63;;;19.95;;
43676;SDS011;29275;48.800;18.102;2024-01-15T05:03:27;32.67;;;18.05;;
43676;SDS011;29275;48.800;18.102;2024-01-15T05:06:30;39.47;;;20.40;;
43676;SDS011;29275;48.800;18.102;2024-01-15T05:09:34;37.42;;;18.95;;
43676;SDS011;29275;48.800;18.102;2024-01-15T05:12:37;39.78;;;19.48;;
43676;SDS011;29275;48.800;18.102;2024-01-15T05:15:40;38.08;;;19.90;;
43676;SDS011;29275;48.800;18.102;2024-01-15T05:18:50;53.38;;;26.40;;
43676;SDS011;29275;48.800;18.102;2024-01-15T05:21:53;41.53;;;21.85;;
43676;SDS011;29275;48.800;18.102;2024-01-15T05:24:56;38.90;;;22.08;;
43676;SDS011;29275;48.800;18.102;2024-01-15T05:27:59;45.63;;;23.83;;
43676;SDS011;29275;48.800;18.102;2024-01-15T05:31:02;42.05;;;22.98;;
43676;SDS011;29275;48.800;18.102;2024-01-15T05:34:08;39.60;;;22.15;;
43676;SDS011;29275;48.800;18.102;2024-01-15T05:37:11;44.22;;;21.13;;
43676;SDS011;29275;48.800;18.102;2024-01-15T05:40:15;32.22;;;17.15;;
43676;SDS011;29275;48.800;18.102;2024-01-15T05:43:18;35.63;;;19.27;;
43676;SDS011;29275;48.800;18.102;2024-01-15T05:46:21;33.80;;;19.30;;
43676;SDS011;29275;48.800;18.102;2024-01-15T05:49:29;33.75;;;18.33;;
43676;SDS011;29275;48.800;18.102;2024-01-15T05:52:32;37.10;;;19.00;;
43676;SDS011;29275;48.800;18.102;2024-01-15T05:55:36;36.45;;;20.73;;
43676;SDS011;29275;48.800;18.102;2024-01-15T05:58:40;41.33;;;22.92;;
43676;SDS011;29275;48.800;18.102;2024-01-15T06:01:47;39.00;;;21.35;;
43676;SDS011;29275;48.800;18.102;2024-01-15T06:04:50;33.08;;;18.52;;
43676;SDS011;29275;48.800;18.102;2024-01-15T06:07:54;41.67;;;22.27;;
43676;SDS011;29275;48.800;18.102;2024-01-15T06:11:04;37.30;;;20.25;;
43676;SDS011;29275;48.800;18.102;2024-01-15T06:14:07;35.78;;;19.02;;
43676;SDS011;29275;48.800;18.102;2024-01-15T06:17:10;38.58;;;20.40;;
43676;SDS011;29275;48.800;18.102;2024-01-15T06:20:16;44.35;;;22.27;;
43676;SDS011;29275;48.800;18.102;2024-01-15T06:23:19;46.80;;;26.10;;
43676;SDS011;29275;48.800;18.102;2024-01-15T06:26:23;60.03;;;26.58;;
43676;SDS011;29275;48.800;18.102;2024-01-15T06:29:26;44.97;;;24.20;;
43676;SDS011;29275;48.800;18.102;2024-01-15T06:32:30;43.33;;;22.17;;
43676;SDS011;29275;48.800;18.102;2024-01-15T06:35:33;44.50;;;23.27;;
43676;SDS011;29275;48.800;18.102;2024-01-15T06:38:37;49.60;;;27.77;;
43676;SDS011;29275;48.800;18.102;2024-01-15T06:41:40;53.17;;;28.27;;
43676;SDS011;29275;48.800;18.102;2024-01-15T06:44:50;55.28;;;31.27;;
43676;SDS011;29275;48.800;18.102;2024-01-15T06:47:54;51.30;;;26.40;;
43676;SDS011;29275;48.800;18.102;2024-01-15T06:51:07;47.88;;;26.00;;
43676;SDS011;29275;48.800;18.102;2024-01-15T06:54:10;62.72;;;28.58;;
43676;SDS011;29275;48.800;18.102;2024-01-15T06:57:13;67.38;;;34.70;;
43676;SDS011;29275;48.800;18.102;2024-01-15T07:00:16;53.03;;;28.42;;
43676;SDS011;29275;48.800;18.102;2024-01-15T07:03:28;56.35;;;28.30;;
43676;SDS011;29275;48.800;18.102;2024-01-15T07:06:31;49.30;;;26.95;;
43676;SDS011;29275;48.800;18.102;2024-01-15T07:09:34;44.22;;;24.27;;
43676;SDS011;29275;48.800;18.102;2024-01-15T07:12:37;48.90;;;24.58;;
43676;SDS011;29275;48.800;18.102;2024-01-15T07:15:40;53.22;;;27.00;;
43676;SDS011;29275;48.800;18.102;2024-01-15T07:18:45;30.02;;;16.17;;
43676;SDS011;29275;48.800;18.102;2024-01-15T07:21:49;44.70;;;23.75;;
43676;SDS011;29275;48.800;18.102;2024-01-15T07:24:55;27.17;;;14.98;;
43676;SDS011;29275;48.800;18.102;2024-01-15T07:27:57;25.58;;;12.48;;
43676;SDS011;29275;48.800;18.102;2024-01-15T07:31:00;27.02;;;13.10;;
43676;SDS011;29275;48.800;18.102;2024-01-15T07:34:06;28.67;;;14.15;;
43676;SDS011;29275;48.800;18.102;2024-01-15T07:37:09;28.27;;;13.98;;
43676;SDS011;29275;48.800;18.102;2024-01-15T07:40:20;23.45;;;12.45;;
43676;SDS011;29275;48.800;18.102;2024-01-15T07:43:24;27.23;;;13.95;;
43676;SDS011;29275;48.800;18.102;2024-01-15T07:46:27;24.80;;;12.75;;
43676;SDS011;29275;48.800;18.102;2024-01-15T07:49:29;29.83;;;14.50;;
43676;SDS011;29275;48.800;18.102;2024-01-15T07:52:33;33.28;;;15.02;;
43676;SDS011;29275;48.800;18.102;2024-01-15T07:55:38;30.75;;;14.52;;
43676;SDS011;29275;48.800;18.102;2024-01-15T07:58:42;35.78;;;18.13;;
43676;SDS011;29275;48.800;18.102;2024-01-15T08:01:45;30.38;;;15.65;;
43676;SDS011;29275;48.800;18.102;2024-01-15T08:04:48;29.33;;;16.13;;
43676;SDS011;29275;48.800;18.102;2024-01-15T08:07:51;34.28;;;16.85;;
43676;SDS011;29275;48.800;18.102;2024-01-15T08:14:02;26.58;;;13.18;;
43676;SDS011;29275;48.800;18.102;2024-01-15T08:17:06;29.02;;;13.00;;
43676;SDS011;29275;48.800;18.102;2024-01-15T08:20:09;28.65;;;14.13;;
43676;SDS011;29275;48.800;18.102;2024-01-15T08:23:13;22.88;;;11.38;;
43676;SDS011;29275;48.800;18.102;2024-01-15T08:26:17;27.75;;;14.43;;
43676;SDS011;29275;48.800;18.102;2024-01-15T08:29:20;44.03;;;21.70;;
43676;SDS011;29275;48.800;18.102;2024-01-15T08:32:23;26.45;;;13.15;;
43676;SDS011;29275;48.800;18.102;2024-01-15T08:35:26;22.58;;;10.43;;
43676;SDS011;29275;48.800;18.102;2024-01-15T08:38:32;23.65;;;9.90;;
43676;SDS011;29275;48.800;18.102;2024-01-15T08:41:35;26.85;;;13.35;;
43676;SDS011;29275;48.800;18.102;2024-01-15T08:44:38;19.77;;;10.90;;
43676;SDS011;29275;48.800;18.102;2024-01-15T08:47:52;20.08;;;9.68;;
43676;SDS011;29275;48.800;18.102;2024-01-15T08:50:55;19.83;;;10.73;;
43676;SDS011;29275;48.800;18.102;2024-01-15T08:53:58;18.83;;;9.45;;
43676;SDS011;29275;48.800;18.102;2024-01-15T08:57:01;19.08;;;11.05;;
43676;SDS011;29275;48.800;18.102;2024-01-15T09:00:05;17.20;;;10.13;;
43676;SDS011;29275;48.800;18.102;2024-01-15T09:03:14;16.13;;;9.02;;
43676;SDS011;29275;48.800;18.102;2024-01-15T09:06:20;19.92;;;11.18;;
43676;SDS011;29275;48.800;18.102;2024-01-15T09:09:23;20.00;;;10.57;;
43676;SDS011;29275;48.800;18.102;2024-01-15T09:12:27;19.00;;;8.35;;
43676;SDS011;29275;48.800;18.102;2024-01-15T09:15:30;16.13;;;8.60;;
43676;SDS011;29275;48.800;18.102;2024-01-15T09:18:33;16.00;;;8.80;;
43676;SDS011;29275;48.800;18.102;2024-01-15T09:21:38;16.10;;;7.97;;
43676;SDS011;29275;48.800;18.102;2024-01-15T09:24:41;18.05;;;9.25;;
43676;SDS011;29275;48.800;18.102;2024-01-15T09:27:49;17.58;;;8.75;;
43676;SDS011;29275;48.800;18.102;2024-01-15T09:30:52;16.17;;;8.65;;
43676;SDS011;29275;48.800;18.102;2024-01-15T09:33:57;19.35;;;8.75;;
43676;SDS011;29275;48.800;18.102;2024-01-15T09:37:02;18.67;;;8.63;;
43676;SDS011;29275;48.800;18.102;2024-01-15T09:40:07;21.33;;;9.90;;
43676;SDS011;29275;48.800;18.102;2024-01-15T09:43:11;19.33;;;10.02;;
43676;SDS011;29275;48.800;18.102;2024-01-15T09:46:15;15.13;;;9.18;;
43676;SDS011;29275;48.800;18.102;2024-01-15T09:49:19;15.90;;;9.07;;
43676;SDS011;29275;48.800;18.102;2024-01-15T09:52:22;19.80;;;9.95;;
43676;SDS011;29275;48.800;18.102;2024-01-15T09:55:25;18.25;;;8.63;;
43676;SDS011;29275;48.800;18.102;2024-01-15T09:58:29;16.13;;;8.18;;
43676;SDS011;29275;48.800;18.102;2024-01-15T10:01:32;15.13;;;8.35;;
43676;SDS011;29275;48.800;18.102;2024-01-15T10:04:41;20.63;;;9.73;;
43676;SDS011;29275;48.800;18.102;2024-01-15T10:07:45;17.33;;;10.05;;
43676;SDS011;29275;48.800;18.102;2024-01-15T10:10:49;19.33;;;8.40;;
43676;SDS011;29275;48.800;18.102;2024-01-15T10:13:52;15.65;;;8.55;;
43676;SDS011;29275;48.800;18.102;2024-01-15T10:17:01;17.85;;;8.68;;
43676;SDS011;29275;48.800;18.102;2024-01-15T10:20:15;15.90;;;9.32;;
43676;SDS011;29275;48.800;18.102;2024-01-15T10:23:18;19.05;;;9.60;;
43676;SDS011;29275;48.800;18.102;2024-01-15T10:26:24;16.65;;;8.23;;
43676;SDS011;29275;48.800;18.102;2024-01-15T10:29:32;18.63;;;12.77;;
43676;SDS011;29275;48.800;18.102;2024-01-15T10:32:44;15.77;;;8.23;;
43676;SDS011;29275;48.800;18.102;2024-01-15T10:36:01;14.27;;;8.35;;
43676;SDS011;29275;48.800;18.102;2024-01-15T10:39:07;14.70;;;8.43;;
43676;SDS011;29275;48.800;18.102;2024-01-15T10:42:53;27.55;;;13.35;;
43676;SDS011;29275;48.800;18.102;2024-01-15T10:46:05;18.25;;;9.98;;
43676;SDS011;29275;48.800;18.102;2024-01-15T10:49:26;15.63;;;8.68;;
43676;SDS011;29275;48.800;18.102;2024-01-15T10:52:45;17.63;;;8.27;;
43676;SDS011;29275;48.800;18.102;2024-01-15T10:55:57;17.65;;;8.18;;
43676;SDS011;29275;48.800;18.102;2024-01-15T10:59:43;17.88;;;8.80;;
43676;SDS011;29275;48.800;18.102;2024-01-15T11:02:46;15.35;;;8.73;;
43676;SDS011;29275;48.800;18.102;2024-01-15T11:05:57;17.63;;;10.27;;
43676;SDS011;29275;48.800;18.102;2024-01-15T11:09:00;14.57;;;8.88;;
43676;SDS011;29275;48.800;18.102;2024-01-15T11:12:12;19.70;;;12.65;;
43676;SDS011;29275;48.800;18.102;2024-01-15T11:25:37;21.42;;;11.10;;
43676;SDS011;29275;48.800;18.102;2024-01-15T11:28:47;12.98;;;8.23;;
43676;SDS011;29275;48.800;18.102;2024-01-15T11:31:58;19.38;;;8.98;;
43676;SDS011;29275;48.800;18.102;2024-01-15T11:35:05;18.17;;;9.48;;
43676;SDS011;29275;48.800;18.102;2024-01-15T11:38:11;13.33;;;8.77;;
43676;SDS011;29275;48.800;18.102;2024-01-15T11:41:14;13.88;;;7.70;;
43676;SDS011;29275;48.800;18.102;2024-01-15T11:44:29;16.25;;;8.00;;
43676;SDS011;29275;48.800;18.102;2024-01-15T11:51:10;17.35;;;8.82;;
43676;SDS011;29275;48.800;18.102;2024-01-15T11:54:17;16.05;;;8.52;;
43676;SDS011;29275;48.800;18.102;2024-01-15T11:57:22;17.98;;;9.80;;
43676;SDS011;29275;48.800;18.102;2024-01-15T12:00:45;14.00;;;7.57;;
43676;SDS011;29275;48.800;18.102;2024-01-15T12:03:57;15.35;;;7.97;;
43676;SDS011;29275;48.800;18.102;2024-01-15T12:07:01;13.82;;;7.25;;
43676;SDS011;29275;48.800;18.102;2024-01-15T12:10:10;11.15;;;7.03;;
43676;SDS011;29275;48.800;18.102;2024-01-15T12:13:20;15.50;;;7.70;;
43676;SDS011;29275;48.800;18.102;2024-01-15T12:16:24;13.85;;;7.95;;
43676;SDS011;29275;48.800;18.102;2024-01-15T12:19:37;15.48;;;6.85;;
43676;SDS011;29275;48.800;18.102;2024-01-15T12:22:49;12.20;;;6.93;;
43676;SDS011;29275;48.800;18.102;2024-01-15T12:26:35;14.60;;;8.30;;
43676;SDS011;29275;48.800;18.102;2024-01-15T12:30:17;14.60;;;7.45;;
43676;SDS011;29275;48.800;18.102;2024-01-15T12:33:31;14.75;;;6.82;;
43676;SDS011;29275;48.800;18.102;2024-01-15T12:36:56;15.65;;;6.53;;
43676;SDS011;29275;48.800;18.102;2024-01-15T12:40:43;14.15;;;6.80;;
43676;SDS011;29275;48.800;18.102;2024-01-15T12:44:05;12.10;;;5.88;;
43676;SDS011;29275;48.800;18.102;2024-01-15T12:47:29;14.52;;;9.68;;
43676;SDS011;29275;48.800;18.102;2024-01-15T12:50:43;15.27;;;9.50;;
43676;SDS011;29275;48.800;18.102;2024-01-15T12:54:17;13.25;;;7.32;;
43676;SDS011;29275;48.800;18.102;2024-01-15T12:57:20;16.13;;;8.38;;
43676;SDS011;29275;48.800;18.102;2024-01-15T13:00:25;10.40;;;6.57;;
43676;SDS011;29275;48.800;18.102;2024-01-15T13:03:29;12.38;;;5.72;;
43676;SDS011;29275;48.800;18.102;2024-01-15T13:06:41;9.55;;;5.47;;
43676;SDS011;29275;48.800;18.102;2024-01-15T13:09:44;11.77;;;6.30;;
43676;SDS011;29275;48.800;18.102;2024-01-15T13:13:08;10.32;;;5.80;;
43676;SDS011;29275;48.800;18.102;2024-01-15T13:16:11;11.80;;;5.43;;
43676;SDS011;29275;48.800;18.102;2024-01-15T13:19:16;14.63;;;9.18;;
43676;SDS011;29275;48.800;18.102;2024-01-15T13:22:19;10.82;;;5.60;;
43676;SDS011;29275;48.800;18.102;2024-01-15T13:25:31;11.00;;;6.60;;
43676;SDS011;29275;48.800;18.102;2024-01-15T13:28:44;11.27;;;6.00;;
43676;SDS011;29275;48.800;18.102;2024-01-15T13:31:48;12.70;;;6.25;;
43676;SDS011;29275;48.800;18.102;2024-01-15T13:35:19;14.35;;;6.70;;
43676;SDS011;29275;48.800;18.102;2024-01-15T13:38:32;12.00;;;6.25;;
43676;SDS011;29275;48.800;18.102;2024-01-15T13:41:58;9.73;;;5.35;;
43676;SDS011;29275;48.800;18.102;2024-01-15T13:45:05;11.27;;;5.47;;
43676;SDS011;29275;48.800;18.102;2024-01-15T13:48:36;11.93;;;5.25;;
43676;SDS011;29275;48.800;18.102;2024-01-15T13:51:39;13.13;;;5.88;;
43676;SDS011;29275;48.800;18.102;2024-01-15T13:54:42;10.25;;;4.80;;
43676;SDS011;29275;48.800;18.102;2024-01-15T13:57:55;10.57;;;5.20;;
43676;SDS011;29275;48.800;18.102;2024-01-15T14:01:01;8.27;;;4.20;;
43676;SDS011;29275;48.800;18.102;2024-01-15T14:04:09;7.38;;;4.22;;
43676;SDS011;29275;48.800;18.102;2024-01-15T14:07:13;10.80;;;3.83;;
43676;SDS011;29275;48.800;18.102;2024-01-15T14:13:22;7.50;;;3.80;;
43676;SDS011;29275;48.800;18.102;2024-01-15T14:16:25;8.27;;;3.75;;
43676;SDS011;29275;48.800;18.102;2024-01-15T14:19:28;8.10;;;3.95;;
43676;SDS011;29275;48.800;18.102;2024-01-15T14:22:31;7.57;;;4.25;;
43676;SDS011;29275;48.800;18.102;2024-01-15T14:25:35;7.57;;;3.92;;
43676;SDS011;29275;48.800;18.102;2024-01-15T14:28:40;8.90;;;3.95;;
43676;SDS011;29275;48.800;18.102;2024-01-15T14:31:43;8.88;;;4.22;;
43676;SDS011;29275;48.800;18.102;2024-01-15T14:34:52;8.48;;;4.18;;
43676;SDS011;29275;48.800;18.102;2024-01-15T14:37:56;7.18;;;3.30;;
43676;SDS011;29275;48.800;18.102;2024-01-15T14:41:01;6.25;;;3.83;;
43676;SDS011;29275;48.800;18.102;2024-01-15T14:44:05;8.40;;;4.47;;
43676;SDS011;29275;48.800;18.102;2024-01-15T14:50:15;6.72;;;3.35;;
43676;SDS011;29275;48.800;18.102;2024-01-15T14:53:19;9.10;;;4.47;;
43676;SDS011;29275;48.800;18.102;2024-01-15T14:56:22;9.35;;;3.63;;
43676;SDS011;29275;48.800;18.102;2024-01-15T14:59:25;7.72;;;4.00;;
43676;SDS011;29275;48.800;18.102;2024-01-15T15:02:34;8.60;;;3.85;;
43676;SDS011;29275;48.800;18.102;2024-01-15T15:05:38;9.10;;;3.72;;
43676;SDS011;29275;48.800;18.102;2024-01-15T15:08:44;7.75;;;3.08;;
43676;SDS011;29275;48.800;18.102;2024-01-15T15:11:46;7.97;;;3.50;;
43676;SDS011;29275;48.800;18.102;2024-01-15T15:14:50;5.60;;;3.20;;
43676;SDS011;29275;48.800;18.102;2024-01-15T15:18:08;6.30;;;4.03;;
43676;SDS011;29275;48.800;18.102;2024-01-15T15:21:12;8.43;;;4.68;;
43676;SDS011;29275;48.800;18.102;2024-01-15T15:24:20;7.40;;;3.30;;
43676;SDS011;29275;48.800;18.102;2024-01-15T15:27:24;8.73;;;3.00;;
43676;SDS011;29275;48.800;18.102;2024-01-15T15:30:27;8.35;;;3.35;;
43676;SDS011;29275;48.800;18.102;2024-01-15T15:33:30;7.45;;;3.50;;
43676;SDS011;29275;48.800;18.102;2024-01-15T15:36:33;8.65;;;4.63;;
43676;SDS011;29275;48.800;18.102;2024-01-15T15:39:37;8.45;;;4.13;;
43676;SDS011;29275;48.800;18.102;2024-01-15T15:42:46;8.18;;;4.80;;
43676;SDS011;29275;48.800;18.102;2024-01-15T15:45:49;7.70;;;3.97;;
43676;SDS011;29275;48.800;18.102;2024-01-15T15:48:52;8.40;;;3.58;;
43676;SDS011;29275;48.800;18.102;2024-01-15T15:51:55;6.70;;;3.67;;
43676;SDS011;29275;48.800;18.102;2024-01-15T15:54:58;5.70;;;2.97;;
43676;SDS011;29275;48.800;18.102;2024-01-15T15:58:02;6.15;;;3.17;;
43676;SDS011;29275;48.800;18.102;2024-01-15T16:01:08;7.78;;;3.25;;
43676;SDS011;29275;48.800;18.102;2024-01-15T16:04:16;5.18;;;2.92;;
43676;SDS011;29275;48.800;18.102;2024-01-15T16:07:20;6.57;;;2.97;;
43676;SDS011;29275;48.800;18.102;2024-01-15T16:10:23;6.20;;;3.08;;
43676;SDS011;29275;48.800;18.102;2024-01-15T16:13:26;7.35;;;3.88;;
43676;SDS011;29275;48.800;18.102;2024-01-15T16:16:30;5.97;;;3.03;;
43676;SDS011;29275;48.800;18.102;2024-01-15T16:19:54;7.35;;;4.18;;
43676;SDS011;29275;48.800;18.102;2024-01-15T16:23:27;6.85;;;3.10;;
43676;SDS011;29275;48.800;18.102;2024-01-15T16:34:17;7.15;;;3.20;;
43676;SDS011;29275;48.800;18.102;2024-01-15T16:37:20;4.65;;;2.85;;
43676;SDS011;29275;48.800;18.102;2024-01-15T16:40:23;10.35;;;3.00;;
43676;SDS011;29275;48.800;18.102;2024-01-15T16:43:27;6.07;;;2.92;;
43676;SDS011;29275;48.800;18.102;2024-01-15T16:46:41;4.60;;;2.53;;
43676;SDS011;29275;48.800;18.102;2024-01-15T16:49:55;5.07;;;2.78;;
43676;SDS011;29275;48.800;18.102;2024-01-15T16:52:58;4.78;;;3.75;;
43676;SDS011;29275;48.800;18.102;2024-01-15T16:56:01;8.43;;;3.92;;
43676;SDS011;29275;48.800;18.102;2024-01-15T17:02:12;7.50;;;5.22;;
43676;SDS011;29275;48.800;18.102;2024-01-15T17:05:23;5.55;;;2.38;;
43676;SDS011;29275;48.800;18.102;2024-01-15T17:08:33;6.65;;;2.85;;
43676;SDS011;29275;48.800;18.102;2024-01-15T17:11:36;4.95;;;2.63;;
43676;SDS011;29275;48.800;18.102;2024-01-15T17:14:39;5.80;;;3.10;;
43676;SDS011;29275;48.800;18.102;2024-01-15T17:17:43;4.30;;;2.33;;
43676;SDS011;29275;48.800;18.102;2024-01-15T17:20:46;5.75;;;2.70;;
43676;SDS011;29275;48.800;18.102;2024-01-15T17:23:49;4.43;;;2.70;;
43676;SDS011;29275;48.800;18.102;2024-01-15T17:26:55;4.85;;;2.25;;
43676;SDS011;29275;48.800;18.102;2024-01-15T17:30:01;6.03;;;2.38;;
43676;SDS011;29275;48.800;18.102;2024-01-15T17:33:04;6.93;;;2.83;;
43676;SDS011;29275;48.800;18.102;2024-01-15T17:36:08;4.18;;;2.22;;
43676;SDS011;29275;48.800;18.102;2024-01-15T17:39:11;5.78;;;2.22;;
43676;SDS011;29275;48.800;18.102;2024-01-15T17:42:15;4.80;;;2.42;;
43676;SDS011;29275;48.800;18.102;2024-01-15T17:45:18;4.32;;;2.20;;
43676;SDS011;29275;48.800;18.102;2024-01-15T17:48:21;5.28;;;2.50;;
43676;SDS011;29275;48.800;18.102;2024-01-15T17:51:33;5.85;;;2.72;;
43676;SDS011;29275;48.800;18.102;2024-01-15T17:54:37;5.43;;;3.00;;
43676;SDS011;29275;48.800;18.102;2024-01-15T17:57:40;3.67;;;2.28;;
43676;SDS011;29275;48.800;18.102;2024-01-15T18:00:43;6.00;;;3.45;;
43676;SDS011;29275;48.800;18.102;2024-01-15T18:03:47;6.35;;;3.70;;
43676;SDS011;29275;48.800;18.102;2024-01-15T18:06:56;6.03;;;4.00;;
43676;SDS011;29275;48.800;18.102;2024-01-15T18:09:59;7.40;;;3.95;;
43676;SDS011;29275;48.800;18.102;2024-01-15T18:13:03;4.78;;;2.97;;
43676;SDS011;29275;48.800;18.102;2024-01-15T18:16:07;4.80;;;3.40;;
43676;SDS011;29275;48.800;18.102;2024-01-15T18:19:20;7.53;;;5.20;;
43676;SDS011;29275;48.800;18.102;2024-01-15T18:22:26;4.85;;;3.20;;
43676;SDS011;29275;48.800;18.102;2024-01-15T18:25:29;5.30;;;2.72;;
43676;SDS011;29275;48.800;18.102;2024-01-15T18:28:38;5.03;;;2.30;;
43676;SDS011;29275;48.800;18.102;2024-01-15T18:31:44;4.45;;;2.55;;
43676;SDS011;29275;48.800;18.102;2024-01-15T18:34:54;5.25;;;2.60;;
43676;SDS011;29275;48.800;18.102;2024-01-15T18:37:58;6.57;;;2.95;;
43676;SDS011;29275;48.800;18.102;2024-01-15T18:41:04;5.45;;;3.67;;